BWC weather

Brawley Municipal Airport
Brawley, California, United States

Public forecast

Using degrees Fahrenheit for public forecast. Weather courtesy of forecast.io.

Closest aviation weather report (METAR) to Brawley Municipal Airport

Closest report is Imperial County Airport, 10.0 nm (18.6 km) SSW. Retrieved 2019/10/17 11:53 UTC (38 minutes ago):

KIPL 171153Z AUTO 27006KT 10SM CLR 20/04 A2968 RMK AO2 SLP051 T02000044 10244 20172 56005

Closest aviation forecast (TAF) to Brawley Municipal Airport

Closest forecast is Imperial County Airport, 10.0 nm (18.6 km) SSW. Retrieved 2019/10/17 12:22 UTC (9 minutes ago):

TAF KIPL 171120Z 1712/1812 27008KT P6SM SCT250 FM172100 26015G25KT P6SM FEW250 FM180800 28011KT P6SM SKC